sensor_id;sensor_type;location;lat;lon;timestamp;pressure;altitude;pressure_sealevel;temperature;humidity
70488;BME280;57976;48.174;16.370;2023-07-16T00:00:16;98647.84;;;25.62;85.33
70488;BME280;57976;48.174;16.370;2023-07-16T00:02:24;98642.52;;;25.59;86.03
70488;BME280;57976;48.174;16.370;2023-07-16T00:04:27;98646.25;;;25.54;85.89
70488;BME280;57976;48.174;16.370;2023-07-16T00:06:30;98646.38;;;25.51;86.12
70488;BME280;57976;48.174;16.370;2023-07-16T00:08:34;98640.17;;;25.49;86.56
70488;BME280;57976;48.174;16.370;2023-07-16T00:10:37;98643.18;;;25.46;86.54
70488;BME280;57976;48.174;16.370;2023-07-16T00:12:41;98641.95;;;25.44;86.80
70488;BME280;57976;48.174;16.370;2023-07-16T00:14:44;98639.63;;;25.40;87.22
70488;BME280;57976;48.174;16.370;2023-07-16T00:16:47;98638.03;;;25.36;87.46
70488;BME280;57976;48.174;16.370;2023-07-16T00:18:50;98633.83;;;25.35;87.84
70488;BME280;57976;48.174;16.370;2023-07-16T00:20:53;98632.18;;;25.33;88.12
70488;BME280;57976;48.174;16.370;2023-07-16T00:22:56;98634.24;;;25.31;88.19
70488;BME280;57976;48.174;16.370;2023-07-16T00:24:59;98636.61;;;25.28;88.36
70488;BME280;57976;48.174;16.370;2023-07-16T00:27:02;98639.77;;;25.27;88.64
70488;BME280;57976;48.174;16.370;2023-07-16T00:29:05;98644.58;;;25.24;88.86
70488;BME280;57976;48.174;16.370;2023-07-16T00:31:09;98641.99;;;25.21;88.95
70488;BME280;57976;48.174;16.370;2023-07-16T00:33:12;98645.48;;;25.17;89.32
70488;BME280;57976;48.174;16.370;2023-07-16T00:35:15;98645.80;;;25.13;89.94
70488;BME280;57976;48.174;16.370;2023-07-16T00:37:18;98647.51;;;25.08;89.94
70488;BME280;57976;48.174;16.370;2023-07-16T00:39:21;98649.83;;;25.05;90.11
70488;BME280;57976;48.174;16.370;2023-07-16T00:41:25;98649.48;;;25.01;90.40
70488;BME280;57976;48.174;16.370;2023-07-16T00:43:28;98649.17;;;24.99;90.71
70488;BME280;57976;48.174;16.370;2023-07-16T00:45:32;98642.74;;;24.96;90.94
70488;BME280;57976;48.174;16.370;2023-07-16T00:47:35;98640.30;;;24.94;91.79
70488;BME280;57976;48.174;16.370;2023-07-16T00:49:39;98638.90;;;24.91;91.72
70488;BME280;57976;48.174;16.370;2023-07-16T00:51:43;98640.02;;;24.90;91.60
70488;BME280;57976;48.174;16.370;2023-07-16T00:53:47;98638.21;;;24.88;91.80
70488;BME280;57976;48.174;16.370;2023-07-16T00:55:50;98637.73;;;24.88;91.86
70488;BME280;57976;48.174;16.370;2023-07-16T00:58:00;98635.33;;;24.85;92.12
70488;BME280;57976;48.174;16.370;2023-07-16T01:00:06;98627.45;;;24.82;92.30
70488;BME280;57976;48.174;16.370;2023-07-16T01:02:09;98629.48;;;24.82;92.43
70488;BME280;57976;48.174;16.370;2023-07-16T01:04:12;98629.11;;;24.81;92.36
70488;BME280;57976;48.174;16.370;2023-07-16T01:06:21;98628.95;;;24.79;92.59
70488;BME280;57976;48.174;16.370;2023-07-16T01:08:30;98629.28;;;24.78;92.54
70488;BME280;57976;48.174;16.370;2023-07-16T01:10:34;98628.52;;;24.76;92.81
70488;BME280;57976;48.174;16.370;2023-07-16T01:12:37;98622.34;;;24.75;92.74
70488;BME280;57976;48.174;16.370;2023-07-16T01:14:41;98621.94;;;24.75;92.80
70488;BME280;57976;48.174;16.370;2023-07-16T01:16:44;98620.69;;;24.72;92.81
70488;BME280;57976;48.174;16.370;2023-07-16T01:18:48;98617.21;;;24.70;92.79
70488;BME280;57976;48.174;16.370;2023-07-16T01:20:51;98615.77;;;24.69;93.06
70488;BME280;57976;48.174;16.370;2023-07-16T01:23:08;98617.30;;;24.69;93.06
70488;BME280;57976;48.174;16.370;2023-07-16T01:25:35;98618.80;;;24.67;93.09
70488;BME280;57976;48.174;16.370;2023-07-16T01:27:56;98615.08;;;24.64;93.09
70488;BME280;57976;48.174;16.370;2023-07-16T01:30:04;98614.66;;;24.60;93.04
70488;BME280;57976;48.174;16.370;2023-07-16T01:32:08;98615.48;;;24.56;93.60
70488;BME280;57976;48.174;16.370;2023-07-16T01:34:12;98617.71;;;24.52;93.87
70488;BME280;57976;48.174;16.370;2023-07-16T01:36:17;98616.36;;;24.47;94.32
70488;BME280;57976;48.174;16.370;2023-07-16T01:38:21;98608.56;;;24.42;94.61
70488;BME280;57976;48.174;16.370;2023-07-16T01:40:24;98609.18;;;24.42;94.84
70488;BME280;57976;48.174;16.370;2023-07-16T01:50:11;98611.80;;;24.39;95.40
70488;BME280;57976;48.174;16.370;2023-07-16T01:52:16;98610.34;;;24.36;95.30
70488;BME280;57976;48.174;16.370;2023-07-16T01:54:21;98608.23;;;24.33;95.54
70488;BME280;57976;48.174;16.370;2023-07-16T01:56:28;98612.27;;;24.30;95.56
70488;BME280;57976;48.174;16.370;2023-07-16T01:58:33;98615.02;;;24.28;95.86
70488;BME280;57976;48.174;16.370;2023-07-16T02:00:39;98616.58;;;24.26;96.07
70488;BME280;57976;48.174;16.370;2023-07-16T02:02:44;98620.05;;;24.23;96.51
70488;BME280;57976;48.174;16.370;2023-07-16T02:04:50;98621.66;;;24.20;96.34
70488;BME280;57976;48.174;16.370;2023-07-16T02:06:56;98626.08;;;24.16;96.76
70488;BME280;57976;48.174;16.370;2023-07-16T02:09:01;98632.23;;;24.16;96.94
70488;BME280;57976;48.174;16.370;2023-07-16T02:11:07;98632.52;;;24.16;97.11
70488;BME280;57976;48.174;16.370;2023-07-16T02:13:12;98635.80;;;24.15;97.32
70488;BME280;57976;48.174;16.370;2023-07-16T02:15:18;98633.52;;;24.13;97.32
70488;BME280;57976;48.174;16.370;2023-07-16T02:17:23;98636.90;;;24.12;97.62
70488;BME280;57976;48.174;16.370;2023-07-16T02:19:28;98641.45;;;24.11;97.48
70488;BME280;57976;48.174;16.370;2023-07-16T02:25:26;98654.15;;;24.10;97.88
70488;BME280;57976;48.174;16.370;2023-07-16T02:27:33;98649.01;;;24.09;98.02
70488;BME280;57976;48.174;16.370;2023-07-16T02:29:40;98652.48;;;24.07;98.15
70488;BME280;57976;48.174;16.370;2023-07-16T02:31:46;98653.39;;;24.04;98.41
70488;BME280;57976;48.174;16.370;2023-07-16T02:33:51;98657.31;;;24.03;98.44
70488;BME280;57976;48.174;16.370;2023-07-16T02:35:56;98662.04;;;24.02;99.21
70488;BME280;57976;48.174;16.370;2023-07-16T02:38:01;98658.96;;;23.95;99.25
70488;BME280;57976;48.174;16.370;2023-07-16T02:40:10;98661.26;;;23.92;99.40
70488;BME280;57976;48.174;16.370;2023-07-16T02:42:15;98662.19;;;23.89;99.51
70488;BME280;57976;48.174;16.370;2023-07-16T02:44:21;98661.83;;;23.88;99.62
70488;BME280;57976;48.174;16.370;2023-07-16T02:46:26;98658.57;;;23.88;99.82
70488;BME280;57976;48.174;16.370;2023-07-16T02:48:34;98663.22;;;23.87;99.68
70488;BME280;57976;48.174;16.370;2023-07-16T02:50:39;98666.88;;;23.87;99.93
70488;BME280;57976;48.174;16.370;2023-07-16T02:52:44;98673.25;;;23.86;99.99
70488;BME280;57976;48.174;16.370;2023-07-16T02:54:49;98673.48;;;23.85;100.00
70488;BME280;57976;48.174;16.370;2023-07-16T02:56:54;98675.27;;;23.87;99.99
70488;BME280;57976;48.174;16.370;2023-07-16T02:58:59;98672.23;;;23.88;100.00
70488;BME280;57976;48.174;16.370;2023-07-16T03:01:04;98674.23;;;23.89;100.00
70488;BME280;57976;48.174;16.370;2023-07-16T03:03:09;98677.85;;;23.90;100.00
70488;BME280;57976;48.174;16.370;2023-07-16T03:05:15;98685.75;;;23.92;100.00
70488;BME280;57976;48.174;16.370;2023-07-16T03:07:20;98688.66;;;23.91;100.00
70488;BME280;57976;48.174;16.370;2023-07-16T03:09:25;98688.70;;;23.86;100.00
70488;BME280;57976;48.174;16.370;2023-07-16T03:11:30;98687.39;;;23.84;100.00
70488;BME280;57976;48.174;16.370;2023-07-16T03:13:36;98690.41;;;23.80;100.00
70488;BME280;57976;48.174;16.370;2023-07-16T03:15:40;98692.34;;;23.76;100.00
70488;BME280;57976;48.174;16.370;2023-07-16T03:17:46;98699.51;;;23.73;100.00
70488;BME280;57976;48.174;16.370;2023-07-16T03:19:51;98700.52;;;23.72;100.00
70488;BME280;57976;48.174;16.370;2023-07-16T03:21:56;98704.05;;;23.73;100.00
70488;BME280;57976;48.174;16.370;2023-07-16T03:24:02;98705.21;;;23.74;100.00
70488;BME280;57976;48.174;16.370;2023-07-16T03:26:07;98706.61;;;23.78;100.00
70488;BME280;57976;48.174;16.370;2023-07-16T03:28:12;98714.30;;;23.82;100.00
70488;BME280;57976;48.174;16.370;2023-07-16T03:30:17;98716.36;;;23.85;100.00
70488;BME280;57976;48.174;16.370;2023-07-16T03:32:23;98714.83;;;23.84;100.00
70488;BME280;57976;48.174;16.370;2023-07-16T03:34:38;98718.20;;;23.83;100.00
70488;BME280;57976;48.174;16.370;2023-07-16T03:36:44;98722.40;;;23.82;100.00
70488;BME280;57976;48.174;16.370;2023-07-16T03:38:49;98724.54;;;23.81;100.00
70488;BME280;57976;48.174;16.370;2023-07-16T03:40:55;98717.09;;;23.82;100.00
70488;BME280;57976;48.174;16.370;2023-07-16T03:43:01;98722.85;;;23.82;100.00
70488;BME280;57976;48.174;16.370;2023-07-16T03:45:09;98720.07;;;23.82;100.00
70488;BME280;57976;48.174;16.370;2023-07-16T03:47:14;98723.80;;;23.83;100.00
70488;BME280;57976;48.174;16.370;2023-07-16T03:49:19;98731.05;;;23.85;100.00
70488;BME280;57976;48.174;16.370;2023-07-16T03:51:24;98738.40;;;23.88;100.00
70488;BME280;57976;48.174;16.370;2023-07-16T03:53:31;98742.05;;;23.91;100.00
70488;BME280;57976;48.174;16.370;2023-07-16T03:55:36;98742.19;;;23.92;100.00
70488;BME280;57976;48.174;16.370;2023-07-16T03:57:41;98746.73;;;23.94;100.00
70488;BME280;57976;48.174;16.370;2023-07-16T03:59:46;98750.88;;;23.93;100.00
70488;BME280;57976;48.174;16.370;2023-07-16T04:01:52;98755.98;;;23.91;100.00
70488;BME280;57976;48.174;16.370;2023-07-16T04:03:58;98763.64;;;23.92;100.00
70488;BME280;57976;48.174;16.370;2023-07-16T04:06:06;98772.55;;;23.93;100.00
70488;BME280;57976;48.174;16.370;2023-07-16T04:08:11;98775.79;;;23.93;100.00
70488;BME280;57976;48.174;16.370;2023-07-16T04:10:16;98772.39;;;23.95;100.00
70488;BME280;57976;48.174;16.370;2023-07-16T04:12:21;98775.63;;;24.00;100.00
70488;BME280;57976;48.174;16.370;2023-07-16T04:14:26;98773.56;;;24.06;100.00
70488;BME280;57976;48.174;16.370;2023-07-16T04:16:31;98769.40;;;24.13;100.00
70488;BME280;57976;48.174;16.370;2023-07-16T04:18:36;98770.20;;;24.20;100.00
70488;BME280;57976;48.174;16.370;2023-07-16T04:20:42;98769.73;;;24.24;100.00
70488;BME280;57976;48.174;16.370;2023-07-16T04:22:47;98774.79;;;24.27;100.00
70488;BME280;57976;48.174;16.370;2023-07-16T04:24:52;98780.73;;;24.32;100.00
70488;BME280;57976;48.174;16.370;2023-07-16T04:26:58;98789.17;;;24.35;100.00
70488;BME280;57976;48.174;16.370;2023-07-16T04:29:04;98792.43;;;24.38;100.00
70488;BME280;57976;48.174;16.370;2023-07-16T04:31:09;98791.57;;;24.42;100.00
70488;BME280;57976;48.174;16.370;2023-07-16T04:33:17;98787.17;;;24.44;100.00
70488;BME280;57976;48.174;16.370;2023-07-16T04:35:23;98788.41;;;24.48;99.90
70488;BME280;57976;48.174;16.370;2023-07-16T04:37:28;98790.20;;;24.53;99.58
70488;BME280;57976;48.174;16.370;2023-07-16T04:39:33;98800.10;;;24.59;99.42
70488;BME280;57976;48.174;16.370;2023-07-16T04:41:38;98811.92;;;24.62;99.49
70488;BME280;57976;48.174;16.370;2023-07-16T04:43:43;98819.73;;;24.61;99.11
70488;BME280;57976;48.174;16.370;2023-07-16T04:45:47;98849.77;;;24.65;99.08
70488;BME280;57976;48.174;16.370;2023-07-16T04:47:52;98897.53;;;24.67;98.75
70488;BME280;57976;48.174;16.370;2023-07-16T04:49:57;98901.80;;;24.67;99.00
70488;BME280;57976;48.174;16.370;2023-07-16T04:52:05;98881.79;;;24.67;98.78
70488;BME280;57976;48.174;16.370;2023-07-16T04:54:10;98883.05;;;24.68;98.32
70488;BME280;57976;48.174;16.370;2023-07-16T04:56:15;98883.73;;;24.72;98.35
70488;BME280;57976;48.174;16.370;2023-07-16T04:58:21;98875.77;;;24.77;98.05
70488;BME280;57976;48.174;16.370;2023-07-16T05:00:26;98895.23;;;24.79;98.14
70488;BME280;57976;48.174;16.370;2023-07-16T05:02:30;98917.40;;;24.80;97.47
70488;BME280;57976;48.174;16.370;2023-07-16T05:04:36;98937.02;;;24.77;97.49
70488;BME280;57976;48.174;16.370;2023-07-16T05:06:41;98949.17;;;24.74;97.89
70488;BME280;57976;48.174;16.370;2023-07-16T05:08:46;98953.48;;;24.72;97.92
70488;BME280;57976;48.174;16.370;2023-07-16T05:10:52;98954.14;;;24.73;97.98
70488;BME280;57976;48.174;16.370;2023-07-16T05:12:57;98954.16;;;24.75;98.21
70488;BME280;57976;48.174;16.370;2023-07-16T05:15:02;98961.58;;;24.78;98.15
70488;BME280;57976;48.174;16.370;2023-07-16T05:17:07;98974.22;;;24.79;97.67
70488;BME280;57976;48.174;16.370;2023-07-16T05:19:12;98972.97;;;24.79;97.07
70488;BME280;57976;48.174;16.370;2023-07-16T05:21:17;98974.92;;;24.79;96.56
70488;BME280;57976;48.174;16.370;2023-07-16T05:23:22;98983.85;;;24.80;96.57
70488;BME280;57976;48.174;16.370;2023-07-16T05:25:27;98996.61;;;24.82;96.62
70488;BME280;57976;48.174;16.370;2023-07-16T05:27:36;98985.09;;;24.83;96.33
70488;BME280;57976;48.174;16.370;2023-07-16T05:29:40;98985.52;;;24.86;96.08
70488;BME280;57976;48.174;16.370;2023-07-16T05:31:45;98989.71;;;24.89;95.41
70488;BME280;57976;48.174;16.370;2023-07-16T05:33:50;98987.35;;;24.93;93.92
70488;BME280;57976;48.174;16.370;2023-07-16T05:35:55;98994.38;;;24.96;93.70
70488;BME280;57976;48.174;16.370;2023-07-16T05:38:00;99004.77;;;25.02;93.16
70488;BME280;57976;48.174;16.370;2023-07-16T05:40:07;99008.25;;;25.09;92.37
70488;BME280;57976;48.174;16.370;2023-07-16T05:42:12;99007.83;;;25.16;91.51
70488;BME280;57976;48.174;16.370;2023-07-16T05:44:17;99013.45;;;25.23;90.45
70488;BME280;57976;48.174;16.370;2023-07-16T05:46:21;99008.58;;;25.29;88.52
70488;BME280;57976;48.174;16.370;2023-07-16T05:48:27;99011.79;;;25.33;87.62
70488;BME280;57976;48.174;16.370;2023-07-16T05:50:32;99009.61;;;25.38;84.50
70488;BME280;57976;48.174;16.370;2023-07-16T05:52:37;99012.60;;;25.41;83.14
70488;BME280;57976;48.174;16.370;2023-07-16T05:54:41;99007.86;;;25.45;81.72
70488;BME280;57976;48.174;16.370;2023-07-16T05:56:47;99008.19;;;25.49;80.48
70488;BME280;57976;48.174;16.370;2023-07-16T05:58:52;99002.27;;;25.53;80.62
70488;BME280;57976;48.174;16.370;2023-07-16T06:00:57;99008.59;;;25.61;80.53
70488;BME280;57976;48.174;16.370;2023-07-16T06:03:03;99011.50;;;25.70;78.60
70488;BME280;57976;48.174;16.370;2023-07-16T06:05:10;99013.99;;;25.76;76.58
70488;BME280;57976;48.174;16.370;2023-07-16T06:07:15;99012.30;;;25.80;76.33
70488;BME280;57976;48.174;16.370;2023-07-16T06:09:20;99013.36;;;25.84;74.74
70488;BME280;57976;48.174;16.370;2023-07-16T06:11:25;99014.94;;;25.84;75.05
70488;BME280;57976;48.174;16.370;2023-07-16T06:13:29;99016.55;;;25.88;75.22
70488;BME280;57976;48.174;16.370;2023-07-16T06:15:34;99027.11;;;25.94;74.23
70488;BME280;57976;48.174;16.370;2023-07-16T06:17:40;99043.14;;;26.00;73.32
70488;BME280;57976;48.174;16.370;2023-07-16T06:19:45;99042.30;;;26.03;73.67
70488;BME280;57976;48.174;16.370;2023-07-16T06:21:50;99047.35;;;26.07;73.93
70488;BME280;57976;48.174;16.370;2023-07-16T06:23:55;99042.98;;;26.12;74.11
70488;BME280;57976;48.174;16.370;2023-07-16T06:25:59;99040.58;;;26.19;74.41
70488;BME280;57976;48.174;16.370;2023-07-16T06:28:04;99042.86;;;26.27;73.99
70488;BME280;57976;48.174;16.370;2023-07-16T06:30:10;99042.64;;;26.36;73.71
70488;BME280;57976;48.174;16.370;2023-07-16T06:32:14;99057.56;;;26.44;72.79
70488;BME280;57976;48.174;16.370;2023-07-16T06:34:19;99067.11;;;26.44;72.68
70488;BME280;57976;48.174;16.370;2023-07-16T06:36:25;99056.95;;;26.43;73.25
70488;BME280;57976;48.174;16.370;2023-07-16T06:38:29;99052.47;;;26.42;73.76
70488;BME280;57976;48.174;16.370;2023-07-16T06:40:34;99051.88;;;26.43;74.17
70488;BME280;57976;48.174;16.370;2023-07-16T06:42:39;99048.84;;;26.42;74.73
70488;BME280;57976;48.174;16.370;2023-07-16T06:44:44;99053.92;;;26.42;75.37
70488;BME280;57976;48.174;16.370;2023-07-16T06:46:49;99052.83;;;26.43;76.03
70488;BME280;57976;48.174;16.370;2023-07-16T06:48:53;99055.75;;;26.49;76.62
70488;BME280;57976;48.174;16.370;2023-07-16T06:50:58;99061.59;;;26.54;76.64
70488;BME280;57976;48.174;16.370;2023-07-16T06:53:03;99053.63;;;26.59;76.49
70488;BME280;57976;48.174;16.370;2023-07-16T06:55:09;99062.59;;;26.68;76.27
70488;BME280;57976;48.174;16.370;2023-07-16T06:57:13;99068.19;;;26.75;75.59
70488;BME280;57976;48.174;16.370;2023-07-16T06:59:18;99058.15;;;26.78;75.28
70488;BME280;57976;48.174;16.370;2023-07-16T07:01:23;99052.88;;;26.83;75.10
70488;BME280;57976;48.174;16.370;2023-07-16T07:03:28;99068.11;;;26.88;74.08
70488;BME280;57976;48.174;16.370;2023-07-16T07:05:33;99056.86;;;26.91;73.68
70488;BME280;57976;48.174;16.370;2023-07-16T07:07:37;99063.55;;;26.97;73.37
70488;BME280;57976;48.174;16.370;2023-07-16T07:09:42;99050.96;;;27.05;72.61
70488;BME280;57976;48.174;16.370;2023-07-16T07:11:47;99056.99;;;27.15;72.20
70488;BME280;57976;48.174;16.370;2023-07-16T07:13:53;99061.48;;;27.26;71.44
70488;BME280;57976;48.174;16.370;2023-07-16T07:15:57;99062.51;;;27.36;70.76
70488;BME280;57976;48.174;16.370;2023-07-16T07:18:02;99070.39;;;27.46;70.18
70488;BME280;57976;48.174;16.370;2023-07-16T07:20:09;99068.81;;;27.54;69.31
70488;BME280;57976;48.174;16.370;2023-07-16T07:22:14;99058.60;;;27.63;69.10
70488;BME280;57976;48.174;16.370;2023-07-16T07:24:19;99069.95;;;27.71;68.09
70488;BME280;57976;48.174;16.370;2023-07-16T07:26:24;99076.09;;;27.78;67.31
70488;BME280;57976;48.174;16.370;2023-07-16T07:28:29;99072.52;;;27.84;67.19
70488;BME280;57976;48.174;16.370;2023-07-16T07:30:34;99080.81;;;27.91;66.50
70488;BME280;57976;48.174;16.370;2023-07-16T07:32:39;99066.61;;;27.96;66.38
70488;BME280;57976;48.174;16.370;2023-07-16T07:34:44;99070.46;;;28.03;66.33
70488;BME280;57976;48.174;16.370;2023-07-16T07:36:49;99073.58;;;28.11;65.08
70488;BME280;57976;48.174;16.370;2023-07-16T07:38:57;99071.06;;;28.19;64.76
70488;BME280;57976;48.174;16.370;2023-07-16T07:41:04;99076.73;;;28.27;64.78
70488;BME280;57976;48.174;16.370;2023-07-16T07:43:08;99069.29;;;28.37;64.06
70488;BME280;57976;48.174;16.370;2023-07-16T07:45:13;99077.77;;;28.44;63.47
70488;BME280;57976;48.174;16.370;2023-07-16T07:47:18;99085.14;;;28.52;62.62
70488;BME280;57976;48.174;16.370;2023-07-16T07:49:23;99077.52;;;28.60;61.73
70488;BME280;57976;48.174;16.370;2023-07-16T07:51:28;99097.05;;;28.67;60.69
70488;BME280;57976;48.174;16.370;2023-07-16T07:53:33;99096.85;;;28.77;59.61
70488;BME280;57976;48.174;16.370;2023-07-16T07:55:37;99099.58;;;28.85;56.57
70488;BME280;57976;48.174;16.370;2023-07-16T07:57:42;99117.40;;;28.93;55.62
70488;BME280;57976;48.174;16.370;2023-07-16T07:59:50;99089.34;;;29.00;54.90
70488;BME280;57976;48.174;16.370;2023-07-16T08:01:55;99094.19;;;29.09;54.93
70488;BME280;57976;48.174;16.370;2023-07-16T08:03:59;99092.79;;;29.20;55.19
70488;BME280;57976;48.174;16.370;2023-07-16T08:06:04;99092.30;;;29.29;54.37
70488;BME280;57976;48.174;16.370;2023-07-16T08:08:09;99099.25;;;29.36;54.27
70488;BME280;57976;48.174;16.370;2023-07-16T08:10:14;99098.92;;;29.41;54.70
70488;BME280;57976;48.174;16.370;2023-07-16T08:12:19;99095.77;;;29.47;55.05
70488;BME280;57976;48.174;16.370;2023-07-16T08:14:24;99103.77;;;29.56;54.98
70488;BME280;57976;48.174;16.370;2023-07-16T08:16:28;99100.45;;;29.63;54.88
70488;BME280;57976;48.174;16.370;2023-07-16T08:18:33;99096.07;;;29.67;54.63
70488;BME280;57976;48.174;16.370;2023-07-16T08:20:38;99100.16;;;29.73;55.05
70488;BME280;57976;48.174;16.370;2023-07-16T08:22:43;99105.13;;;29.79;55.09
70488;BME280;57976;48.174;16.370;2023-07-16T08:24:48;99104.69;;;29.82;54.80
70488;BME280;57976;48.174;16.370;2023-07-16T08:26:52;99098.48;;;29.83;54.89
70488;BME280;57976;48.174;16.370;2023-07-16T08:28:57;99103.46;;;29.88;55.17
70488;BME280;57976;48.174;16.370;2023-07-16T08:31:02;99117.41;;;29.90;54.39
70488;BME280;57976;48.174;16.370;2023-07-16T08:33:07;99109.26;;;29.86;54.26
70488;BME280;57976;48.174;16.370;2023-07-16T08:35:12;99123.32;;;29.86;54.30
70488;BME280;57976;48.174;16.370;2023-07-16T08:37:20;99121.21;;;29.91;54.10
70488;BME280;57976;48.174;16.370;2023-07-16T08:39:25;99125.40;;;29.89;53.29
70488;BME280;57976;48.174;16.370;2023-07-16T08:41:30;99124.05;;;29.83;53.47
70488;BME280;57976;48.174;16.370;2023-07-16T08:43:36;99123.50;;;29.83;53.74
70488;BME280;57976;48.174;16.370;2023-07-16T08:45:43;99132.85;;;29.89;52.90
70488;BME280;57976;48.174;16.370;2023-07-16T08:47:48;99129.34;;;29.90;52.76
70488;BME280;57976;48.174;16.370;2023-07-16T08:49:55;99131.70;;;29.94;53.03
70488;BME280;57976;48.174;16.370;2023-07-16T08:52:02;99135.54;;;30.02;52.59
70488;BME280;57976;48.174;16.370;2023-07-16T08:54:07;99130.22;;;30.04;52.32
70488;BME280;57976;48.174;16.370;2023-07-16T08:56:11;99125.27;;;30.09;52.96
70488;BME280;57976;48.174;16.370;2023-07-16T08:58:17;99135.02;;;30.15;52.69
70488;BME280;57976;48.174;16.370;2023-07-16T09:00:22;99131.10;;;30.17;52.53
70488;BME280;57976;48.174;16.370;2023-07-16T09:02:28;99142.55;;;30.21;52.06
70488;BME280;57976;48.174;16.370;2023-07-16T09:04:33;99142.94;;;30.26;51.38
70488;BME280;57976;48.174;16.370;2023-07-16T09:06:40;99146.58;;;30.27;51.62
70488;BME280;57976;48.174;16.370;2023-07-16T09:08:45;99142.57;;;30.27;51.56
70488;BME280;57976;48.174;16.370;2023-07-16T09:10:56;99144.40;;;30.26;51.43
70488;BME280;57976;48.174;16.370;2023-07-16T09:13:01;99129.96;;;30.28;51.96
70488;BME280;57976;48.174;16.370;2023-07-16T09:15:07;99126.31;;;30.37;51.98
70488;BME280;57976;48.174;16.370;2023-07-16T09:17:12;99130.98;;;30.41;51.28
70488;BME280;57976;48.174;16.370;2023-07-16T09:19:17;99135.70;;;30.46;51.17
70488;BME280;57976;48.174;16.370;2023-07-16T09:21:22;99138.39;;;30.53;50.41
70488;BME280;57976;48.174;16.370;2023-07-16T09:23:32;99140.06;;;30.57;49.93
70488;BME280;57976;48.174;16.370;2023-07-16T09:25:37;99136.91;;;30.57;49.21
70488;BME280;57976;48.174;16.370;2023-07-16T09:27:41;99138.27;;;30.58;49.88
70488;BME280;57976;48.174;16.370;2023-07-16T09:29:46;99140.44;;;30.63;49.46
70488;BME280;57976;48.174;16.370;2023-07-16T09:31:58;99133.65;;;30.65;49.37
70488;BME280;57976;48.174;16.370;2023-07-16T09:34:03;99137.77;;;30.70;49.96
70488;BME280;57976;48.174;16.370;2023-07-16T09:36:08;99134.53;;;30.76;49.57
70488;BME280;57976;48.174;16.370;2023-07-16T09:38:13;99139.46;;;30.82;49.57
70488;BME280;57976;48.174;16.370;2023-07-16T09:40:18;99133.86;;;30.87;49.39
70488;BME280;57976;48.174;16.370;2023-07-16T09:42:24;99136.59;;;30.95;49.09
70488;BME280;57976;48.174;16.370;2023-07-16T09:44:29;99134.10;;;31.00;48.66
70488;BME280;57976;48.174;16.370;2023-07-16T09:46:34;99143.64;;;31.03;48.36
70488;BME280;57976;48.174;16.370;2023-07-16T09:48:39;99133.41;;;31.05;48.63
70488;BME280;57976;48.174;16.370;2023-07-16T09:50:49;99140.40;;;31.09;48.20
70488;BME280;57976;48.174;16.370;2023-07-16T09:52:54;99132.23;;;31.07;48.41
70488;BME280;57976;48.174;16.370;2023-07-16T09:55:02;99133.41;;;31.12;48.62
70488;BME280;57976;48.174;16.370;2023-07-16T09:57:10;99136.71;;;31.21;48.38
70488;BME280;57976;48.174;16.370;2023-07-16T09:59:16;99129.59;;;31.24;48.19
70488;BME280;57976;48.174;16.370;2023-07-16T10:01:22;99125.67;;;31.25;48.28
70488;BME280;57976;48.174;16.370;2023-07-16T10:03:27;99128.76;;;31.27;48.24
70488;BME280;57976;48.174;16.370;2023-07-16T10:05:35;99124.80;;;31.28;48.02
70488;BME280;57976;48.174;16.370;2023-07-16T10:07:40;99128.56;;;31.28;47.70
70488;BME280;57976;48.174;16.370;2023-07-16T10:09:53;99121.31;;;31.26;48.08
70488;BME280;57976;48.174;16.370;2023-07-16T10:12:10;99130.86;;;31.31;48.10
70488;BME280;57976;48.174;16.370;2023-07-16T10:14:26;99147.20;;;31.36;47.24
70488;BME280;57976;48.174;16.370;2023-07-16T10:16:37;99119.05;;;31.29;47.72
70488;BME280;57976;48.174;16.370;2023-07-16T10:18:51;99127.36;;;31.28;48.05
70488;BME280;57976;48.174;16.370;2023-07-16T10:21:01;99128.49;;;31.34;47.98
70488;BME280;57976;48.174;16.370;2023-07-16T10:23:13;99127.95;;;31.43;48.13
70488;BME280;57976;48.174;16.370;2023-07-16T10:25:25;99124.02;;;31.52;47.57
70488;BME280;57976;48.174;16.370;2023-07-16T10:27:32;99125.74;;;31.57;47.54
70488;BME280;57976;48.174;16.370;2023-07-16T10:29:37;99110.59;;;31.55;47.80
70488;BME280;57976;48.174;16.370;2023-07-16T10:31:42;99120.66;;;31.58;47.85
70488;BME280;57976;48.174;16.370;2023-07-16T10:33:57;99115.52;;;31.60;48.21
70488;BME280;57976;48.174;16.370;2023-07-16T10:36:02;99115.92;;;31.62;47.63
70488;BME280;57976;48.174;16.370;2023-07-16T10:38:07;99115.36;;;31.62;48.61
70488;BME280;57976;48.174;16.370;2023-07-16T10:40:13;99119.52;;;31.61;48.52
70488;BME280;57976;48.174;16.370;2023-07-16T10:42:18;99119.94;;;31.62;47.46
70488;BME280;57976;48.174;16.370;2023-07-16T10:44:24;99115.21;;;31.62;48.19
70488;BME280;57976;48.174;16.370;2023-07-16T10:46:30;99122.29;;;31.64;48.14
70488;BME280;57976;48.174;16.370;2023-07-16T10:48:35;99118.39;;;31.62;48.55
70488;BME280;57976;48.174;16.370;2023-07-16T10:50:39;99121.82;;;31.62;48.36
70488;BME280;57976;48.174;16.370;2023-07-16T10:52:44;99117.20;;;31.58;48.43
70488;BME280;57976;48.174;16.370;2023-07-16T10:54:49;99123.19;;;31.58;48.49
70488;BME280;57976;48.174;16.370;2023-07-16T10:56:54;99108.92;;;31.57;48.26
70488;BME280;57976;48.174;16.370;2023-07-16T10:58:59;99104.48;;;31.56;48.69
70488;BME280;57976;48.174;16.370;2023-07-16T11:01:04;99111.20;;;31.64;48.95
70488;BME280;57976;48.174;16.370;2023-07-16T11:03:10;99109.14;;;31.69;48.65
70488;BME280;57976;48.174;16.370;2023-07-16T11:05:16;99108.39;;;31.72;48.80